Terminal Aerodrome Forecast
Issued by NWS

Current Version | Previous Version | Text Only | Print | Product List | Glossary Off
Versions: 1 2 3 4 5 6 7 8 9 10 11 12 13 14 15 16 17 18 19 20 21

000
FTUS41 KRLX 161400 AAA
TAFCKB
TAF AMD
KCKB 161406Z 1614/1712 27005KT P6SM BKN007 BKN013 OVC024
     FM161500 VRB03KT P6SM BKN035
     FM162000 30004KT P6SM SCT040
     FM162300 00000KT P6SM SCT250
     FM170400 00000KT 6SM BR SCT250
     FM170900 00000KT 1/4SM FG BKN003=

USA.gov is the U.S. government's official web portal to all federal, state and local government web resources and services.